Time;durP1;ratioP1;P1;durP2;ratioP2;P2;SDS_P1;SDS_P2;PMS_P1;PMS_P2;Temp;Humidity;BMP_temperature;BMP_pressure;BME280_temperature;BME280_humidity;BME280_pressure;Samples;Min_cycle;Max_cycle;Signal;HPM_P1;HPM_P2
2023/10/06 00:01:42;;;;;;;0.65;0.30;;;;;;;16.65;100.00;100803.38;5014939;28;20062;-47
2023/10/06 00:04:22;;;;;;;0.65;0.50;;;;;;;16.64;100.00;100796.16;5014661;28;20049;-46
2023/10/06 00:06:49;;;;;;;0.85;0.22;;;;;;;16.62;100.00;100801.34;5013635;28;20048;-44
2023/10/06 00:09:25;;;;;;;0.90;0.20;;;;;;;16.62;100.00;100798.56;5011248;28;20056;-45
2023/10/06 00:11:52;;;;;;;1.33;0.45;;;;;;;16.61;100.00;100800.53;5013718;28;20045;-46
2023/10/06 00:14:38;;;;;;;0.73;0.20;;;;;;;16.62;100.00;100813.34;5014564;28;20060;-44
2023/10/06 00:17:15;;;;;;;0.40;0.10;;;;;;;16.61;100.00;100811.72;5012381;28;20050;-44
2023/10/06 00:19:50;;;;;;;1.80;0.73;;;;;;;16.62;100.00;100801.34;5000639;28;20142;-50
2023/10/06 00:24:50;;;;;;;0.30;0.30;;;;;;;16.62;100.00;100801.34;4973553;28;20520;-46
2023/10/06 00:27:29;;;;;;;0.22;0.20;;;;;;;16.61;100.00;100799.72;4972292;28;20042;-46
2023/10/06 00:29:57;;;;;;;1.90;0.20;;;;;;;16.60;100.00;100815.69;4974958;28;20515;-47
2023/10/06 00:32:28;;;;;;;1.48;0.30;;;;;;;16.61;100.00;100803.34;4972037;28;20053;-47
2023/10/06 00:35:15;;;;;;;1.80;0.20;;;;;;;16.59;100.00;100805.72;4972154;28;20165;-48
2023/10/06 00:37:42;;;;;;;0.20;0.17;;;;;;;16.59;100.00;100797.34;5019055;28;20042;-45
2023/10/06 00:40:19;;;;;;;0.60;0.13;;;;;;;16.60;100.00;100809.31;5014602;28;20040;-46
2023/10/06 00:42:51;;;;;;;1.27;0.30;;;;;;;16.58;100.00;100806.09;4996970;28;20038;-45
2023/10/06 00:45:18;;;;;;;0.45;0.10;;;;;;;16.59;100.00;100813.28;5014629;28;20054;-45
2023/10/06 00:47:45;;;;;;;0.95;0.30;;;;;;;16.58;100.00;100792.13;4995788;28;20893;-46
2023/10/06 00:50:12;;;;;;;1.10;0.22;;;;;;;16.58;100.00;100792.13;4969705;28;20050;-46
2023/10/06 00:52:40;;;;;;;1.00;0.38;;;;;;;16.58;100.00;100800.50;4970639;28;20223;-46
2023/10/06 00:55:12;;;;;;;0.35;0.10;;;;;;;16.57;100.00;100794.13;4970584;28;20037;-48
2023/10/06 00:57:52;;;;;;;1.92;0.20;;;;;;;16.57;100.00;100798.91;4969892;28;20409;-47
2023/10/06 01:00:20;;;;;;;0.65;0.20;;;;;;;16.56;100.00;100791.69;4970348;28;20078;-47
2023/10/06 01:02:48;;;;;;;1.65;0.35;;;;;;;16.56;100.00;100808.47;4970022;28;20060;-47
2023/10/06 01:05:17;;;;;;;0.47;0.35;;;;;;;16.57;100.00;100793.31;4983812;28;20090;-44
2023/10/06 01:07:45;;;;;;;0.30;0.10;;;;;;;16.56;100.00;100805.69;5011079;28;20100;-45
2023/10/06 01:10:27;;;;;;;1.50;0.30;;;;;;;16.55;100.00;100802.06;5011582;28;20640;-45
2023/10/06 01:12:56;;;;;;;1.25;0.30;;;;;;;16.56;100.00;100802.88;5012264;28;20038;-45
2023/10/06 01:15:29;;;;;;;1.30;0.57;;;;;;;16.57;100.00;100810.09;5011657;28;20148;-47
2023/10/06 01:17:59;;;;;;;0.45;0.20;;;;;;;16.59;100.00;100799.31;5011419;28;20046;-46
2023/10/06 01:20:41;;;;;;;0.45;0.30;;;;;;;16.59;100.00;100804.91;5011380;28;20092;-44
2023/10/06 01:23:16;;;;;;;0.63;0.20;;;;;;;16.62;100.00;100809.75;5009382;28;20049;-45
2023/10/06 01:25:43;;;;;;;0.10;0.10;;;;;;;16.62;100.00;100806.94;5009585;28;20065;-45
2023/10/06 01:28:13;;;;;;;1.83;0.55;;;;;;;16.63;100.00;100800.16;5010558;28;20045;-46
2023/10/06 01:30:40;;;;;;;0.73;0.20;;;;;;;16.62;100.00;100799.38;5010545;28;20364;-50
2023/10/06 01:33:07;;;;;;;0.40;0.30;;;;;;;16.61;100.00;100802.53;5010748;28;20045;-44
2023/10/06 01:35:36;;;;;;;1.13;0.20;;;;;;;16.62;100.00;100796.56;5009646;28;20047;-46
2023/10/06 01:38:05;;;;;;;0.30;0.20;;;;;;;16.62;100.00;100784.59;5011479;28;20052;-47
2023/10/06 01:42:59;;;;;;;1.13;0.10;;;;;;;16.64;100.00;100791.38;5011006;28;20038;-44
2023/10/06 01:45:28;;;;;;;1.50;0.13;;;;;;;16.66;100.00;100788.19;5011438;28;20407;-45
2023/10/06 01:50:41;;;;;;;0.50;0.40;;;;;;;16.64;100.00;100791.38;5010571;28;20038;-46
2023/10/06 01:53:11;;;;;;;0.40;0.20;;;;;;;16.63;100.00;100786.97;5010872;28;20068;-46
2023/10/06 01:55:38;;;;;;;1.08;0.20;;;;;;;16.62;100.00;100795.75;5010034;28;20556;-45
2023/10/06 01:58:11;;;;;;;1.00;0.22;;;;;;;16.58;100.00;100780.94;5010233;28;20046;-45
2023/10/06 02:00:38;;;;;;;1.42;0.10;;;;;;;16.58;100.00;100783.72;5008549;28;20144;-44
2023/10/06 02:03:11;;;;;;;0.50;0.20;;;;;;;16.56;100.00;100781.31;5005868;28;20041;-46
2023/10/06 02:05:38;;;;;;;0.22;0.20;;;;;;;16.56;100.00;100781.31;5009237;28;20113;-45
2023/10/06 02:08:21;;;;;;;2.03;0.20;;;;;;;16.54;100.00;100780.09;5008565;28;20684;-46
2023/10/06 02:10:49;;;;;;;0.80;0.40;;;;;;;16.54;100.00;100782.91;5009064;28;20471;-44
2023/10/06 02:13:23;;;;;;;0.30;0.17;;;;;;;16.53;100.00;100786.88;5009115;28;20081;-44
2023/10/06 02:15:59;;;;;;;1.20;0.20;;;;;;;16.52;100.00;100793.63;5009450;28;20385;-45
2023/10/06 02:18:36;;;;;;;1.10;0.47;;;;;;;16.50;100.00;100790.41;5009499;28;20033;-43
2023/10/06 02:21:15;;;;;;;1.77;0.30;;;;;;;16.48;100.00;100782.41;5008011;28;20123;-46
2023/10/06 02:23:44;;;;;;;2.28;0.50;;;;;;;16.47;100.00;100788.41;5007504;28;20511;-44
2023/10/06 02:26:12;;;;;;;0.95;0.30;;;;;;;16.47;100.00;100782.81;5008711;28;20052;-45
2023/10/06 02:28:48;;;;;;;3.30;0.30;;;;;;;16.47;100.00;100788.41;5009235;28;20089;-47
2023/10/06 02:31:21;;;;;;;1.98;0.30;;;;;;;16.42;100.00;100781.97;5008798;28;20037;-45
2023/10/06 02:33:50;;;;;;;0.65;0.30;;;;;;;16.42;100.00;100781.97;5006554;28;20050;-46
2023/10/06 02:36:23;;;;;;;3.20;0.50;;;;;;;16.40;100.00;100778.75;5009294;28;20042;-44
2023/10/06 02:38:51;;;;;;;1.55;0.52;;;;;;;16.39;100.00;100776.31;5008014;28;20380;-44
2023/10/06 02:41:20;;;;;;;1.48;0.40;;;;;;;16.39;100.00;100781.91;5009356;28;20046;-47
2023/10/06 02:43:52;;;;;;;0.63;0.30;;;;;;;16.37;100.00;100779.50;5009214;28;20501;-45
2023/10/06 02:46:21;;;;;;;2.58;0.50;;;;;;;16.37;100.00;100778.69;5008432;28;20057;-45
2023/10/06 02:48:48;;;;;;;0.90;0.40;;;;;;;16.37;100.00;100771.13;5008423;28;20076;-46
2023/10/06 02:51:32;;;;;;;2.35;0.55;;;;;;;16.40;100.00;100773.16;5009563;28;21731;-46
2023/10/06 02:54:20;;;;;;;1.05;0.25;;;;;;;16.41;100.00;100773.97;5005528;28;20508;-45
2023/10/06 02:56:50;;;;;;;0.75;0.65;;;;;;;16.43;100.00;100783.56;5008519;28;20511;-48
2023/10/06 02:59:21;;;;;;;2.25;0.50;;;;;;;16.44;100.00;100776.78;5009185;28;20136;-44
2023/10/06 03:01:54;;;;;;;0.43;0.20;;;;;;;16.49;100.00;100786.03;5027998;23;20525;-46
2023/10/06 03:04:25;;;;;;;2.65;0.60;;;;;;;16.50;100.00;100790.41;4990157;28;20132;-45
2023/10/06 03:06:57;;;;;;;0.60;0.30;;;;;;;16.54;100.00;100794.09;5007715;28;20045;-46
2023/10/06 03:09:38;;;;;;;3.25;0.80;;;;;;;16.57;100.00;100801.69;5007276;28;20054;-44
2023/10/06 03:12:14;;;;;;;2.40;0.35;;;;;;;16.59;100.00;100790.94;5008666;28;20034;-45
2023/10/06 03:14:42;;;;;;;1.45;0.40;;;;;;;16.61;100.00;100788.56;5009206;28;20046;-49
2023/10/06 03:17:11;;;;;;;0.73;0.43;;;;;;;16.63;100.00;100786.97;5009516;28;20030;-46
2023/10/06 03:19:43;;;;;;;0.55;0.30;;;;;;;16.65;100.00;100787.41;4990004;28;20057;-45
2023/10/06 03:22:13;;;;;;;2.22;0.35;;;;;;;16.67;100.00;100787.03;5009293;28;20068;-45
2023/10/06 03:24:58;;;;;;;1.48;0.95;;;;;;;16.68;100.00;100785.84;5008440;28;20049;-46
2023/10/06 03:27:25;;;;;;;1.63;0.30;;;;;;;16.68;100.00;100783.06;5009365;28;20038;-45
2023/10/06 03:30:07;;;;;;;6.32;0.63;;;;;;;16.69;100.00;100777.06;5009128;28;20048;-46
2023/10/06 03:32:39;;;;;;;;;;;;;;;16.68;100.00;100789.41;5009907;28;20077;-44
2023/10/06 03:35:54;;;;;;;0.30;0.30;;;;;;;16.67;100.00;100781.44;5009843;28;19921;-45
2023/10/06 03:38:07;;;;;;;0.93;0.40;;;;;;;16.68;100.00;100791.44;4991492;28;20074;-47
2023/10/06 03:40:44;;;;;;;3.05;0.40;;;;;;;16.69;100.00;100793.84;5010062;28;20492;-45
2023/10/06 03:43:16;;;;;;;0.47;0.20;;;;;;;16.70;100.00;100797.44;5009389;28;20128;-44
2023/10/06 03:45:47;;;;;;;0.50;0.40;;;;;;;16.72;100.00;100792.25;5009463;28;20045;-44
2023/10/06 03:48:14;;;;;;;0.43;0.20;;;;;;;16.73;100.00;100791.09;5009111;28;20049;-44
2023/10/06 03:50:43;;;;;;;0.98;0.60;;;;;;;16.74;100.00;100781.47;5006910;28;20049;-46
2023/10/06 03:53:12;;;;;;;2.08;0.50;;;;;;;16.75;100.00;100794.28;5005696;28;20046;-45
2023/10/06 03:55:42;;;;;;;2.45;0.55;;;;;;;16.75;100.00;100788.69;5008934;28;20500;-46
2023/10/06 03:58:11;;;;;;;1.05;0.70;;;;;;;16.77;100.00;100794.69;5009674;28;20080;-48
2023/10/06 04:00:39;;;;;;;1.63;0.55;;;;;;;16.76;100.00;100790.31;5008601;28;20049;-44
2023/10/06 04:03:13;;;;;;;1.92;0.38;;;;;;;16.78;100.00;100801.91;5002585;28;20093;-47
2023/10/06 04:05:48;;;;;;;1.35;0.30;;;;;;;16.79;100.00;100795.91;5004848;28;20124;-44
2023/10/06 04:08:22;;;;;;;0.20;0.20;;;;;;;16.79;100.00;100803.50;5007728;28;20056;-45
2023/10/06 04:10:53;;;;;;;0.28;0.25;;;;;;;16.80;100.00;100796.72;5005765;28;20107;-44
2023/10/06 04:13:20;;;;;;;1.65;0.40;;;;;;;16.79;100.00;100784.72;5008426;28;20133;-45
2023/10/06 04:15:52;;;;;;;1.83;0.35;;;;;;;16.80;100.00;100796.72;5006745;28;20050;-47
2023/10/06 04:18:23;;;;;;;1.65;0.40;;;;;;;16.81;100.00;100796.31;5006289;28;20424;-46
2023/10/06 04:20:52;;;;;;;1.35;0.40;;;;;;;16.82;100.00;100797.13;5006622;28;20054;-44
2023/10/06 04:23:22;;;;;;;0.30;0.30;;;;;;;16.82;100.00;100797.13;5010565;28;20045;-45
2023/10/06 04:25:56;;;;;;;1.52;0.30;;;;;;;16.82;100.00;100797.13;5010630;28;20077;-46
2023/10/06 04:28:25;;;;;;;1.23;0.40;;;;;;;16.82;100.00;100795.16;5011059;28;20116;-47
2023/10/06 04:30:54;;;;;;;2.58;0.40;;;;;;;16.83;100.00;100787.56;5007676;28;20038;-44
2023/10/06 04:33:25;;;;;;;0.70;0.60;;;;;;;16.83;100.00;100790.38;5011033;28;20045;-44
2023/10/06 04:35:55;;;;;;;1.35;0.30;;;;;;;16.84;100.00;100805.94;5010535;28;20073;-45
2023/10/06 04:38:23;;;;;;;0.55;0.32;;;;;;;16.85;100.00;100799.16;5010171;28;20046;-45
2023/10/06 04:40:51;;;;;;;1.88;0.50;;;;;;;16.83;100.00;100802.34;5009678;28;20052;-46
2023/10/06 04:43:20;;;;;;;3.17;0.50;;;;;;;16.84;100.00;100814.31;5010674;28;20057;-46
2023/10/06 04:45:47;;;;;;;4.88;0.43;;;;;;;16.83;100.00;100793.16;5006894;28;20045;-46
2023/10/06 04:48:21;;;;;;;0.75;0.20;;;;;;;16.84;100.00;100797.53;4993442;28;20053;-47
2023/10/06 04:50:50;;;;;;;2.28;0.50;;;;;;;16.85;100.00;100799.16;5007614;28;20088;-47
2023/10/06 04:53:18;;;;;;;2.35;0.55;;;;;;;16.84;100.00;100786.34;5011452;28;20066;-50
2023/10/06 04:55:44;;;;;;;0.50;0.40;;;;;;;16.84;100.00;100787.16;5007694;28;20037;-45
2023/10/06 04:58:15;;;;;;;2.08;0.40;;;;;;;16.84;100.00;100786.34;5010671;28;20078;-45
2023/10/06 05:00:42;;;;;;;1.40;0.57;;;;;;;16.83;100.00;100779.19;5008963;28;20057;-48
2023/10/06 05:03:11;;;;;;;0.75;0.35;;;;;;;16.81;100.00;100790.72;5002426;28;20146;-45
2023/10/06 05:05:40;;;;;;;2.15;0.55;;;;;;;16.81;100.00;100779.56;4989057;28;20045;-47
2023/10/06 05:08:09;;;;;;;1.88;0.52;;;;;;;16.80;100.00;100796.72;5008922;28;20137;-44
2023/10/06 05:10:37;;;;;;;2.15;0.55;;;;;;;16.80;100.00;100793.94;5008841;28;20053;-45
2023/10/06 05:13:06;;;;;;;1.08;0.57;;;;;;;16.79;100.00;100789.50;5009578;28;20058;-45
2023/10/06 05:15:37;;;;;;;0.95;0.63;;;;;;;16.79;100.00;100797.91;5009478;28;20535;-44
2023/10/06 05:18:05;;;;;;;2.25;0.52;;;;;;;16.77;100.00;100789.91;5008505;28;20046;-45
2023/10/06 05:20:35;;;;;;;1.65;0.40;;;;;;;16.78;100.00;100788.75;5008568;28;20042;-46
2023/10/06 05:23:21;;;;;;;1.02;0.65;;;;;;;16.77;100.00;100794.69;5007242;28;20092;-45
2023/10/06 05:25:48;;;;;;;1.70;0.68;;;;;;;16.76;100.00;100802.28;5007636;28;20153;-47
2023/10/06 05:28:17;;;;;;;1.38;0.70;;;;;;;16.76;100.00;100802.28;4982061;28;20056;-45
2023/10/06 05:30:44;;;;;;;2.90;0.63;;;;;;;16.76;100.00;100807.09;5010979;28;20550;-47
2023/10/06 05:33:14;;;;;;;2.35;0.65;;;;;;;16.75;100.00;100806.28;5008398;28;20407;-45
2023/10/06 05:35:42;;;;;;;1.65;0.60;;;;;;;16.76;100.00;100807.09;5011028;28;20041;-46
2023/10/06 05:38:15;;;;;;;1.88;0.70;;;;;;;16.75;100.00;100811.06;4991626;28;20042;-45
2023/10/06 05:40:44;;;;;;;1.77;0.70;;;;;;;16.76;100.00;100813.47;5011753;28;20041;-46
2023/10/06 05:43:17;;;;;;;4.57;0.57;;;;;;;16.75;100.00;100819.44;5011003;28;20369;-46
2023/10/06 05:45:45;;;;;;;1.67;0.60;;;;;;;16.75;100.00;100827.84;5010738;28;20053;-47
2023/10/06 05:48:15;;;;;;;2.45;0.95;;;;;;;16.75;100.00;100827.84;5011027;28;20547;-45
2023/10/06 05:50:43;;;;;;;1.20;1.10;;;;;;;16.74;100.00;100832.63;5010979;28;20056;-44
2023/10/06 05:53:19;;;;;;;2.85;0.80;;;;;;;16.75;100.00;100833.44;5011654;28;20128;-46
2023/10/06 05:55:49;;;;;;;1.50;1.17;;;;;;;16.74;100.00;100829.81;5010210;28;20128;-45
2023/10/06 05:58:23;;;;;;;4.35;1.58;;;;;;;16.74;100.00;100832.63;5011046;28;20050;-44
2023/10/06 06:00:56;;;;;;;1.55;0.77;;;;;;;16.74;100.00;100827.03;5010606;28;20056;-46
2023/10/06 06:03:23;;;;;;;4.43;0.90;;;;;;;16.74;100.00;100829.81;5009039;28;20046;-46
2023/10/06 06:05:53;;;;;;;1.67;0.50;;;;;;;16.74;100.00;100826.22;5010609;28;20041;-45
2023/10/06 06:08:20;;;;;;;4.25;0.95;;;;;;;16.75;100.00;100822.25;5010588;28;20073;-45
2023/10/06 06:10:47;;;;;;;2.55;0.63;;;;;;;16.76;100.00;100823.88;5009816;28;20045;-46
2023/10/06 06:13:16;;;;;;;3.05;0.90;;;;;;;16.78;100.00;100827.06;4993390;28;20046;-46
2023/10/06 06:15:46;;;;;;;;;;;;;;;16.75;100.00;100837.03;5011100;28;20053;-45
2023/10/06 06:18:13;;;;;;;0.70;0.65;;;;;;;16.76;100.00;100835.03;5010468;28;20011;-45
2023/10/06 06:20:43;;;;;;;1.10;0.80;;;;;;;16.76;100.00;100844.22;5010239;28;20646;-47
2023/10/06 06:23:13;;;;;;;1.85;0.80;;;;;;;16.78;100.00;100843.84;5009862;28;20410;-47
2023/10/06 06:25:42;;;;;;;3.28;0.93;;;;;;;16.80;100.00;100845.06;5008787;28;20054;-45
2023/10/06 06:28:12;;;;;;;1.45;0.60;;;;;;;16.81;100.00;100848.69;4991577;28;20142;-45
2023/10/06 06:30:40;;;;;;;2.33;0.80;;;;;;;16.82;100.00;100853.06;5002598;28;20048;-46
2023/10/06 06:33:08;;;;;;;2.22;0.43;;;;;;;16.85;100.00;100855.09;5009528;28;20085;-50
2023/10/06 06:35:36;;;;;;;3.92;0.77;;;;;;;16.86;100.00;100856.72;4991239;28;20049;-50
2023/10/06 06:38:06;;;;;;;2.35;0.77;;;;;;;16.86;100.00;100853.91;4992492;28;20149;-46
2023/10/06 06:40:37;;;;;;;2.05;0.57;;;;;;;16.89;100.00;100865.13;5008030;28;20047;-45
2023/10/06 06:43:11;;;;;;;3.17;0.80;;;;;;;16.91;100.00;100870.34;4991507;28;20049;-48
2023/10/06 06:45:41;;;;;;;2.08;0.85;;;;;;;16.91;100.00;100878.72;5005740;28;20145;-49
2023/10/06 06:48:13;;;;;;;1.73;0.70;;;;;;;16.93;100.00;100873.56;5008978;28;20077;-49
2023/10/06 06:50:44;;;;;;;4.13;0.90;;;;;;;16.94;100.00;100869.56;5008656;28;20042;-50
2023/10/06 06:53:11;;;;;;;2.28;0.80;;;;;;;16.94;100.00;100875.94;5009800;28;20503;-47
2023/10/06 06:55:39;;;;;;;2.53;0.80;;;;;;;16.94;100.00;100872.38;5008478;28;20438;-46
2023/10/06 06:58:10;;;;;;;2.85;0.88;;;;;;;16.95;100.00;100869.19;5010198;28;20053;-47
2023/10/06 07:00:39;;;;;;;2.80;0.88;;;;;;;16.95;100.00;100873.97;5007227;28;20048;-46
2023/10/06 07:03:08;;;;;;;3.92;1.40;;;;;;;16.96;100.00;100867.19;5009583;28;20388;-49
2023/10/06 07:05:35;;;;;;;6.32;1.45;;;;;;;16.97;100.00;100877.97;5009012;28;20076;-47
2023/10/06 07:08:06;;;;;;;11.48;1.70;;;;;;;16.97;100.00;100886.38;5009421;28;20053;-46
2023/10/06 07:10:38;;;;;;;3.80;1.20;;;;;;;16.98;100.00;100876.81;4962553;28;20053;-46
2023/10/06 07:13:06;;;;;;;5.53;1.70;;;;;;;16.99;100.00;100880.41;4973265;28;20076;-49
2023/10/06 07:15:33;;;;;;;3.85;1.98;;;;;;;17.01;100.00;100876.03;4971427;28;22192;-46
2023/10/06 07:18:00;;;;;;;6.30;2.22;;;;;;;17.03;100.00;100889.63;4973241;28;20776;-51
2023/10/06 07:20:49;;;;;;;6.78;1.52;;;;;;;17.04;100.00;100874.47;4975556;28;20054;-46
2023/10/06 07:23:17;;;;;;;4.90;1.48;;;;;;;17.07;100.00;100878.47;5008482;28;20054;-48
2023/10/06 07:25:44;;;;;;;7.50;2.30;;;;;;;17.07;100.00;100872.88;4978870;28;20046;-47
2023/10/06 07:28:12;;;;;;;6.63;2.03;;;;;;;17.08;100.00;100880.88;4972574;28;20073;-46
2023/10/06 07:30:39;;;;;;;5.05;2.05;;;;;;;17.09;100.00;100881.69;4985301;28;20050;-45
2023/10/06 07:33:06;;;;;;;7.88;1.90;;;;;;;17.08;100.00;100880.88;5007454;28;20046;-47
2023/10/06 07:35:51;;;;;;;7.50;2.00;;;;;;;17.09;100.00;100881.69;4989892;28;20060;-48
2023/10/06 07:38:18;;;;;;;8.88;2.83;;;;;;;17.10;100.00;100883.31;4971393;28;20058;-48
2023/10/06 07:40:45;;;;;;;7.53;2.00;;;;;;;17.11;100.00;100891.28;4977629;28;20107;-46
2023/10/06 07:43:15;;;;;;;6.50;2.13;;;;;;;17.13;100.00;100899.31;5006727;28;20042;-48
2023/10/06 07:45:42;;;;;;;7.63;1.90;;;;;;;17.15;100.00;100892.16;4989523;28;20096;-52
2023/10/06 07:48:09;;;;;;;7.97;2.35;;;;;;;17.17;100.00;100900.94;4974327;28;20054;-47
2023/10/06 07:50:37;;;;;;;6.32;1.63;;;;;;;17.19;100.00;100914.53;4973807;28;20057;-49
2023/10/06 07:53:06;;;;;;;5.45;1.77;;;;;;;17.21;100.00;100912.19;4968369;28;20188;-51
2023/10/06 07:55:33;;;;;;;7.10;1.73;;;;;;;17.23;100.00;100904.19;4971349;28;20076;-52
2023/10/06 07:58:02;;;;;;;5.90;1.65;;;;;;;17.25;100.00;100891.44;4973319;28;21807;-46
2023/10/06 08:00:30;;;;;;;5.03;2.22;;;;;;;17.28;100.00;100912.25;4977642;28;20130;-49
2023/10/06 08:03:01;;;;;;;4.40;1.55;;;;;;;17.29;100.00;100903.44;4973716;28;20073;-50
